Terminal Aerodrome Forecast
Issued by NWS Hastings, NE

Home | Current Version | Previous Version | Text Only | Print | Product List | Glossary On
Versions: 1 2 3 4 5 6 7 8 9 10 11 12 13 14 15 16 17 18 19 20 21 22 23 24 25 26
000
FTUS43 KGID 190520
TAFGRI
TAF
KGRI 190520Z 1906/2006 01020G28KT P6SM OVC011
     FM190700 01019G27KT P6SM BKN008
     FM191300 36018G25KT P6SM OVC015
     FM200000 02012KT P6SM OVC015=

USA.gov is the U.S. government's official web portal to all federal, state and local government web resources and services.